Onecure — WDJ7457 — position and weather

sailwx.info

Track history (hours):
 
Tides and Currents Weather Stations Pressure Air Temp Water Temp Dewpoint Dewpoint Depression Visibility Wind Speed Wind Dir Waves Ship Positions

Onecure

Owner: Harley Marine Services, Inc., Seattle, WA. More information available from US FCC via Universal Licensing System and Coast Guard Vessel Documentation Center.

Last reported at 2018-Apr-22 02:30 UTC. Time now 2018-Apr-22 02:40 UTC.
Position N 49°55' W 125°04'.

Length 34 m; draft 6.3 m.

Type: . MMSI: 368006870.

Date/timePositionNaut miles runAvg speedWind from/ knotsBaromVisibWave heightAir tempDewpointWater temp
2018-Apr-22 02:30N 49°55' W 125°04'2 3.5
2018-Apr-22 01:58N 49°54' W 125°01'2 3.7
2018-Apr-22 01:29N 49°53' W 124°59'2 3.7
2018-Apr-22 01:00N 49°52' W 124°57'2 4.3
2018-Apr-22 00:30N 49°51' W 124°55'2 3.8
2018-Apr-22 00:00N 49°49' W 124°52'2 3.8
2018-Apr-21 23:28N 49°48' W 124°50'2 3.9
2018-Apr-21 23:00N 49°47' W 124°48'2 4.5
2018-Apr-21 22:29N 49°46' W 124°45'3 5.8
2018-Apr-21 22:00N 49°44' W 124°42'3 6.4
2018-Apr-21 21:29N 49°42' W 124°38'3 6.6
2018-Apr-21 21:00N 49°40' W 124°34'4 6.6
2018-Apr-21 20:21N 49°37' W 124°29'5 7.1
2018-Apr-21 19:39N 49°34' W 124°22'2 6.9
2018-Apr-21 19:24N 49°33' W 124°20'12 6.4
2018-Apr-21 17:32N 49°28' W 124°04'1 7.4
2018-Apr-21 17:26N 49°27' W 124°03'4 7.2
2018-Apr-21 16:57N 49°26' W 123°57'4 6.9
2018-Apr-21 16:24N 49°25' W 123°52'3 7.5
2018-Apr-21 15:57N 49°24' W 123°47'4 9.0
2018-Apr-21 15:30N 49°23' W 123°41'4 8.6
2018-Apr-21 15:00N 49°21' W 123°35'4 8.5
2018-Apr-21 14:30N 49°20' W 123°29'4 8.5
2018-Apr-21 13:59N 49°19' W 123°22'4 8.8
2018-Apr-21 13:30N 49°19' W 123°15'4 8.9
2018-Apr-21 13:00N 49°19' W 123°09'4 7.9
2018-Apr-21 12:30N 49°18' W 123°03'2 3.5
2018-Apr-21 12:00N 49°18' W 123°00'0 0.0
2018-Apr-21 11:29N 49°18' W 123°00'0 0.0
2018-Apr-21 10:59N 49°18' W 123°00'0 0.0
2018-Apr-21 10:29N 49°18' W 123°00'0 0.0
2018-Apr-21 09:59N 49°18' W 123°00'0 0.1
2018-Apr-21 09:29N 49°18' W 123°00'0 0.1
2018-Apr-21 08:59N 49°18' W 123°00'0 0.0
2018-Apr-21 08:29N 49°18' W 123°00'0 0.0
2018-Apr-21 07:59N 49°18' W 123°00'0 0.0
2018-Apr-21 07:29N 49°18' W 123°00'0 0.0
2018-Apr-21 06:59N 49°18' W 123°00'0 0.0
2018-Apr-21 06:29N 49°18' W 123°00'0 0.0
2018-Apr-21 05:53N 49°18' W 123°00'0 0.0
2018-Apr-21 05:29N 49°18' W 123°00'0 0.0
2018-Apr-21 04:59N 49°18' W 123°00'0 0.0
2018-Apr-21 04:29N 49°18' W 123°00'0 0.0
2018-Apr-21 03:53N 49°18' W 123°00'0 0.0
2018-Apr-21 03:23N 49°18' W 123°00'0 0.0
2018-Apr-21 02:59N 49°18' W 123°00'0 0.0
2018-Apr-21 02:29N 49°18' W 123°00'0 0.0
2018-Apr-21 01:59N 49°18' W 123°00'0 0.0
2018-Apr-21 01:29N 49°18' W 123°00'0 0.0
2018-Apr-21 00:59N 49°18' W 123°00'0 0.1
2018-Apr-21 00:29N 49°18' W 123°00'0 0.1
2018-Apr-20 23:59N 49°18' W 123°00'0 0.0
2018-Apr-20 23:29N 49°18' W 123°00'0 0.0
2018-Apr-20 22:59N 49°18' W 123°00'0 0.0
2018-Apr-20 22:29N 49°18' W 123°00'0 0.0
2018-Apr-20 21:59N 49°18' W 123°00'0 0.0
2018-Apr-20 21:29N 49°18' W 123°00'0 0.1
2018-Apr-20 20:59N 49°18' W 123°00'0 0.1
2018-Apr-20 20:29N 49°18' W 123°00'0 0.0
2018-Apr-20 19:59N 49°18' W 123°00'0 0.0
2018-Apr-20 19:29N 49°18' W 123°00'0 0.0
2018-Apr-20 18:59N 49°18' W 123°00'0 0.0
2018-Apr-20 18:29N 49°18' W 123°00'0 0.0
2018-Apr-20 17:59N 49°18' W 123°00'0 0.1
2018-Apr-20 17:29N 49°18' W 123°00'0 0.1
2018-Apr-20 16:59N 49°18' W 123°00'0 0.0
2018-Apr-20 16:29N 49°18' W 123°00'0 0.0
2018-Apr-20 15:53N 49°18' W 123°00'0 0.0
2018-Apr-20 15:29N 49°18' W 123°00'0 0.0
2018-Apr-20 14:53N 49°18' W 123°00'0 0.0
2018-Apr-20 14:29N 49°18' W 123°00'0 0.0
2018-Apr-20 13:59N 49°18' W 123°00'0 0.0
2018-Apr-20 13:29N 49°18' W 123°00'0 0.1
2018-Apr-20 12:59N 49°18' W 123°00'0 0.1
2018-Apr-20 12:29N 49°18' W 123°00'0 0.0
2018-Apr-20 11:59N 49°18' W 123°00'0 0.0
2018-Apr-20 11:29N 49°18' W 123°00'0 0.0
2018-Apr-20 10:59N 49°18' W 123°00'0 0.0
2018-Apr-20 10:29N 49°18' W 123°00'0 0.0
2018-Apr-20 09:59N 49°18' W 123°00'0 0.0
2018-Apr-20 09:29N 49°18' W 123°00'0 0.0
2018-Apr-20 08:59N 49°18' W 123°00'0 0.1
2018-Apr-20 08:29N 49°18' W 123°00'0 0.1
2018-Apr-20 07:59N 49°18' W 123°00'0 0.1
2018-Apr-20 07:29N 49°18' W 123°00'0 0.1
2018-Apr-20 06:59N 49°18' W 123°00'0 0.0
2018-Apr-20 06:29N 49°18' W 123°00'0 0.0
2018-Apr-20 05:53N 49°18' W 123°00'1 2.7
2018-Apr-20 05:30N 49°18' W 122°59'0 0.9
2018-Apr-20 05:00N 49°18' W 122°58'1 1.8
2018-Apr-20 04:29N 49°18' W 122°57'0 0.1
2018-Apr-20 03:59N 49°18' W 122°57'0 0.2
2018-Apr-20 03:29N 49°18' W 122°57'0 0.1
2018-Apr-20 02:59N 49°18' W 122°57'0 0.1
2018-Apr-20 02:29N 49°18' W 122°57'0 0.0
2018-Apr-20 01:59N 49°18' W 122°57'0 0.0
2018-Apr-20 01:29N 49°18' W 122°57'0 0.1
2018-Apr-20 00:56N 49°18' W 122°57'0 0.0
2018-Apr-20 00:29N 49°18' W 122°57'0 0.0
2018-Apr-19 23:53N 49°18' W 122°57'0 0.0
2018-Apr-19 23:29N 49°18' W 122°57'0 0.1
2018-Apr-19 22:56N 49°18' W 122°57'0 0.2
2018-Apr-19 22:29N 49°18' W 122°57'0 0.0
2018-Apr-19 21:53N 49°18' W 122°57'0 0.1
2018-Apr-19 21:29N 49°18' W 122°57'0 0.0
2018-Apr-19 20:56N 49°18' W 122°57'0 0.1
2018-Apr-19 20:29N 49°18' W 122°57'0 0.0
2018-Apr-19 19:59N 49°18' W 122°57'0 0.0
2018-Apr-19 19:29N 49°18' W 122°57'0 0.1
2018-Apr-19 18:59N 49°18' W 122°57'0 0.1
2018-Apr-19 18:29N 49°18' W 122°57'0 0.1
2018-Apr-19 17:59N 49°18' W 122°57'0 0.1
2018-Apr-19 17:29N 49°18' W 122°57'0 0.1
2018-Apr-19 16:59N 49°18' W 122°57'0 0.1
2018-Apr-19 16:29N 49°18' W 122°57'0 0.0
2018-Apr-19 15:59N 49°18' W 122°57'0 0.0
2018-Apr-19 15:29N 49°18' W 122°57'0 0.0
2018-Apr-19 14:59N 49°18' W 122°57'0 0.0
2018-Apr-19 14:29N 49°18' W 122°57'0 0.1
2018-Apr-19 13:59N 49°18' W 122°57'0 0.0
2018-Apr-19 13:29N 49°18' W 122°57'0 0.1
2018-Apr-19 12:59N 49°18' W 122°57'0 0.1
2018-Apr-19 12:29N 49°18' W 122°57'0 0.0
2018-Apr-19 11:56N 49°18' W 122°57'0 0.0
2018-Apr-19 11:29N 49°18' W 122°57'0 0.1
2018-Apr-19 10:59N 49°18' W 122°57'0 0.2
2018-Apr-19 10:29N 49°18' W 122°57'0 0.3
2018-Apr-19 10:01N 49°18' W 122°57'2 4.6
2018-Apr-19 09:30N 49°18' W 123°00'3 6.4
2018-Apr-19 09:00N 49°18' W 123°05'3 5.2
2018-Apr-19 08:30N 49°19' W 123°09'4 7.6
2018-Apr-19 08:00N 49°20' W 123°15'4 7.3
2018-Apr-19 07:30N 49°19' W 123°20'4 7.6
2018-Apr-19 07:00N 49°19' W 123°26'4 7.6
2018-Apr-19 06:30N 49°21' W 123°32'4 7.4
2018-Apr-19 06:00N 49°21' W 123°37'3 6.5
2018-Apr-19 05:30N 49°23' W 123°42'3 6.7
2018-Apr-19 04:59N 49°24' W 123°47'3 6.3
2018-Apr-19 04:30N 49°25' W 123°51'3 6.9
2018-Apr-19 04:00N 49°26' W 123°56'3 5.8
2018-Apr-19 03:26N 49°27' W 124°01'3 7.5
2018-Apr-19 03:00N 49°28' W 124°06'9 8.1
2018-Apr-19 01:55N 49°32' W 124°18'4 9.7
2018-Apr-19 01:29N 49°34' W 124°23'5 9.2
2018-Apr-19 00:58N 49°37' W 124°29'4 9.6
2018-Apr-19 00:30N 49°40' W 124°35'5 9.8
2018-Apr-19 00:00N 49°43' W 124°40'5 9.8
2018-Apr-18 23:30N 49°46' W 124°46'510.1
2018-Apr-18 23:00N 49°50' W 124°52'5 9.5
2018-Apr-18 22:30N 49°52' W 124°58'5 9.6
2018-Apr-18 22:00N 49°55' W 125°04'5 9.8
2018-Apr-18 21:30N 49°58' W 125°10'511.0
2018-Apr-18 21:00N 50°03' W 125°14'4 8.7
2018-Apr-18 20:30N 50°06' W 125°18'4 7.2
2018-Apr-18 20:00N 50°09' W 125°21'3 6.7
2018-Apr-18 19:29N 50°13' W 125°23'3 5.2
2018-Apr-18 18:57N 50°16' W 125°23'2 5.2
2018-Apr-18 18:29N 50°18' W 125°25'3 5.9
2018-Apr-18 18:00N 50°20' W 125°26'4 6.2
2018-Apr-18 17:22N 50°21' W 125°32'2 2.3
2018-Apr-18 16:23N 50°22' W 125°35'2 6.2
2018-Apr-18 16:00N 50°22' W 125°39'5 5.3
2018-Apr-18 15:00N 50°22' W 125°47'20 6.9
2018-Apr-18 12:09N 50°29' W 126°16'19 9.0
2018-Apr-18 10:01N 50°36' W 126°44'1 9.8
2018-Apr-18 09:54N 50°37' W 126°46'410.9
2018-Apr-18 09:30N 50°40' W 126°51'610.3
2018-Apr-18 08:56N 50°43' W 126°59'610.0
2018-Apr-18 08:20N 50°45' W 127°08'3 9.7
2018-Apr-18 08:00N 50°46' W 127°13'510.6
2018-Apr-18 07:30N 50°48' W 127°20'510.3
2018-Apr-18 07:00N 50°50' W 127°28'510.2
2018-Apr-18 06:30N 50°53' W 127°35'5 9.6
2018-Apr-18 06:00N 50°56' W 127°41'5 9.5
2018-Apr-18 05:30N 50°59' W 127°47'5 9.6
2018-Apr-18 04:59N 51°02' W 127°53'5 9.7
2018-Apr-18 04:30N 51°05' W 127°59'6 9.7
2018-Apr-18 03:54N 51°08' W 128°06'4 9.0
2018-Apr-18 03:30N 51°11' W 128°10'4 8.8
2018-Apr-18 03:00N 51°13' W 128°15'4 8.4
2018-Apr-18 02:30N 51°16' W 128°21'5 9.2
2018-Apr-18 02:00N 51°19' W 128°26'5 9.6
2018-Apr-18 01:30N 51°23' W 128°31'5 9.5
2018-Apr-18 01:00N 51°27' W 128°35'5 9.6
2018-Apr-18 00:30N 51°31' W 128°40'510.0
2018-Apr-18 00:00N 51°35' W 128°44'510.1
2018-Apr-17 23:30N 51°39' W 128°49'510.2
2018-Apr-17 23:00N 51°43' W 128°53'5 9.9
2018-Apr-17 22:31N 51°47' W 128°58'5 9.8
2018-Apr-17 22:00N 51°51' W 129°02'5 9.5
2018-Apr-17 21:30N 51°55' W 129°06'5 9.4
2018-Apr-17 21:00N 51°59' W 129°11'100 9.6
2018-Apr-17 10:37N 53°22' W 130°43'510.2
2018-Apr-17 10:09N 53°27' W 130°46'2 9.6
2018-Apr-17 09:58N 53°28' W 130°47'5 9.6
2018-Apr-17 09:27N 53°33' W 130°50'4 9.3
2018-Apr-17 09:00N 53°37' W 130°52'5 9.1
2018-Apr-17 08:30N 53°41' W 130°54'5 9.5
2018-Apr-17 08:00N 53°46' W 130°55'5 9.4
2018-Apr-17 07:30N 53°50' W 130°57'5 9.6
2018-Apr-17 07:00N 53°55' W 130°59'5 9.7
2018-Apr-17 06:30N 53°60' W 131°00'5 9.8
2018-Apr-17 06:00N 54°05' W 131°01'510.2
2018-Apr-17 05:30N 54°10' W 131°02'510.1
2018-Apr-17 05:00N 54°15' W 131°03'5 9.7
2018-Apr-17 04:30N 54°20' W 131°04'5 9.3
2018-Apr-17 04:00N 54°24' W 131°05'5 9.3
2018-Apr-17 03:30N 54°29' W 131°07'5 9.3
2018-Apr-17 03:00N 54°33' W 131°08'5 9.1
2018-Apr-17 02:30N 54°38' W 131°09'5 9.4
2018-Apr-17 01:59N 54°43' W 131°09'4 8.9
2018-Apr-17 01:30N 54°47' W 131°08'5 9.6
2018-Apr-17 01:00N 54°52' W 131°08'27 0.7
2018-Apr-15 09:48N 54°25' W 131°05'4 9.2
2018-Apr-15 09:25N 54°22' W 131°04'4 8.8
2018-Apr-15 09:00N 54°18' W 131°03'4 8.4
2018-Apr-15 08:30N 54°14' W 131°02'5 9.1
2018-Apr-15 08:00N 54°09' W 131°02'5 9.5
2018-Apr-15 07:30N 54°05' W 131°02'5 9.6
2018-Apr-15 07:00N 53°60' W 130°60'5 9.9
2018-Apr-15 06:30N 53°55' W 130°57'5 9.7
2018-Apr-15 06:00N 53°52' W 130°52'125 8.9
2018-Apr-14 16:00N 52°12' W 128°45'4 8.7
2018-Apr-14 15:30N 52°08' W 128°43'5 9.2
2018-Apr-14 15:00N 52°04' W 128°41'4 8.7
2018-Apr-14 14:31N 51°60' W 128°39'4 8.8
2018-Apr-14 14:00N 51°55' W 128°37'4 8.7
2018-Apr-14 13:30N 51°51' W 128°35'4 8.5
2018-Apr-14 13:00N 51°48' W 128°32'4 8.2
2018-Apr-14 12:30N 51°44' W 128°28'4 8.1
2018-Apr-14 12:00N 51°41' W 128°25'4 8.2
2018-Apr-14 11:30N 51°37' W 128°21'4 8.2
2018-Apr-14 11:00N 51°34' W 128°17'4 8.1
2018-Apr-14 10:30N 51°31' W 128°13'4 8.1
2018-Apr-14 10:00N 51°28' W 128°10'4 7.7
2018-Apr-14 09:30N 51°25' W 128°04'4 7.6
2018-Apr-14 09:00N 51°23' W 127°59'4 8.2
2018-Apr-14 08:30N 51°20' W 127°56'4 8.4
2018-Apr-14 08:00N 51°16' W 127°54'4 8.4
2018-Apr-14 07:30N 51°12' W 127°52'4 8.5
2018-Apr-14 07:00N 51°08' W 127°50'4 8.0
2018-Apr-14 06:30N 51°04' W 127°48'4 8.1
2018-Apr-14 06:00N 51°00' W 127°46'4 7.8
2018-Apr-14 05:30N 50°57' W 127°43'4 8.3
2018-Apr-14 05:00N 50°54' W 127°38'4 8.5
2018-Apr-14 04:30N 50°52' W 127°33'4 8.8
2018-Apr-14 04:00N 50°50' W 127°27'4 8.7
2018-Apr-14 03:30N 50°48' W 127°20'5 9.0
2018-Apr-14 03:00N 50°46' W 127°14'5 9.2
2018-Apr-14 02:30N 50°44' W 127°07'5 9.3
2018-Apr-14 02:00N 50°43' W 127°00'5 9.2
2018-Apr-14 01:28N 50°41' W 126°53'5 9.7
2018-Apr-14 00:59N 50°38' W 126°47'610.4
2018-Apr-14 00:26N 50°33' W 126°41'4 9.3
2018-Apr-14 00:00N 50°31' W 126°36'35 8.6
2018-Apr-13 19:59N 50°22' W 125°44'11 8.3
2018-Apr-13 18:40N 50°20' W 125°27'1 7.7
2018-Apr-13 18:30N 50°20' W 125°25'5 9.3
2018-Apr-13 18:00N 50°15' W 125°23'5 9.9
2018-Apr-13 17:30N 50°10' W 125°22'5 9.2
2018-Apr-13 17:00N 50°06' W 125°18'4 7.7
2018-Apr-13 16:30N 50°03' W 125°14'4 8.7
2018-Apr-13 16:00N 49°59' W 125°12'3 6.2
2018-Apr-13 15:28N 49°57' W 125°08'3 7.1
2018-Apr-13 14:59N 49°55' W 125°04'3 6.6
2018-Apr-13 14:29N 49°53' W 124°60'3 6.3
2018-Apr-13 14:00N 49°51' W 124°56'3 6.7
2018-Apr-13 13:30N 49°49' W 124°52'3 6.9
2018-Apr-13 13:00N 49°47' W 124°48'3 6.7
2018-Apr-13 12:29N 49°45' W 124°44'3 6.4
2018-Apr-13 11:59N 49°43' W 124°40'3 6.7
2018-Apr-13 11:30N 49°41' W 124°36'9 6.5
2018-Apr-13 10:03N 49°35' W 124°25'0 6.8
2018-Apr-13 10:00N 49°35' W 124°24'4 6.9
2018-Apr-13 09:27N 49°33' W 124°19'10 7.2
2018-Apr-13 08:00N 49°27' W 124°06'3 6.4
2018-Apr-13 07:29N 49°25' W 124°01'3 6.4
2018-Apr-13 07:00N 49°24' W 123°57'3 5.6
2018-Apr-13 06:27N 49°22' W 123°54'3 5.2
2018-Apr-13 05:52N 49°20' W 123°50'2 5.0
2018-Apr-13 05:29N 49°19' W 123°48'2 4.9
2018-Apr-13 04:59N 49°17' W 123°45'3 5.3
2018-Apr-13 04:23N 49°15' W 123°41'5 5.7
2018-Apr-13 03:29N 49°12' W 123°35'4 6.7
2018-Apr-13 02:50N 49°09' W 123°30'2 6.6
2018-Apr-13 02:28N 49°08' W 123°27'3 7.1
2018-Apr-13 01:59N 49°06' W 123°23'3 6.9
2018-Apr-13 01:29N 49°03' W 123°19'3 7.0
2018-Apr-13 01:00N 49°01' W 123°15'3 7.2
2018-Apr-13 00:30N 48°59' W 123°11'4 7.0
2018-Apr-12 23:58N 48°56' W 123°07'3 6.9
2018-Apr-12 23:28N 48°54' W 123°03'3 6.7
2018-Apr-12 22:59N 48°52' W 122°59'3 6.6
2018-Apr-12 22:30N 48°50' W 122°55'4 7.0
2018-Apr-12 21:59N 48°47' W 122°51'18 6.7
2018-Apr-12 19:18N 48°33' W 122°35'2 7.1
2018-Apr-12 18:59N 48°31' W 122°34'0 0.0
2018-Apr-12 15:40N 48°31' W 122°34'0 0.2
2018-Apr-12 15:30N 48°31' W 122°34'  
Track history (hours):
 
Tides and Currents Weather Stations Pressure Air Temp Water Temp Dewpoint Dewpoint Depression Visibility Wind Speed Wind Dir Waves Ship Positions

Onecure

Owner: Harley Marine Services, Inc., Seattle, WA. More information available from US FCC via Universal Licensing System and Coast Guard Vessel Documentation Center.

Last reported at 2018-Apr-22 02:30 UTC. Time now 2018-Apr-22 02:40 UTC.
Position N 49°55' W 125°04'.

Length 34 m; draft 6.3 m.

Type: . MMSI: 368006870.

Date/timePositionNaut miles runAvg speedWind from/ knotsBaromVisibWave heightAir tempDewpointWater temp
2018-Apr-22 02:30N 49°55' W 125°04'2 3.5
2018-Apr-22 01:58N 49°54' W 125°01'2 3.7
2018-Apr-22 01:29N 49°53' W 124°59'2 3.7
2018-Apr-22 01:00N 49°52' W 124°57'2 4.3
2018-Apr-22 00:30N 49°51' W 124°55'2 3.8
2018-Apr-22 00:00N 49°49' W 124°52'2 3.8
2018-Apr-21 23:28N 49°48' W 124°50'2 3.9
2018-Apr-21 23:00N 49°47' W 124°48'2 4.5
2018-Apr-21 22:29N 49°46' W 124°45'3 5.8
2018-Apr-21 22:00N 49°44' W 124°42'3 6.4
2018-Apr-21 21:29N 49°42' W 124°38'3 6.6
2018-Apr-21 21:00N 49°40' W 124°34'4 6.6
2018-Apr-21 20:21N 49°37' W 124°29'5 7.1
2018-Apr-21 19:39N 49°34' W 124°22'2 6.9
2018-Apr-21 19:24N 49°33' W 124°20'12 6.4
2018-Apr-21 17:32N 49°28' W 124°04'1 7.4
2018-Apr-21 17:26N 49°27' W 124°03'4 7.2
2018-Apr-21 16:57N 49°26' W 123°57'4 6.9
2018-Apr-21 16:24N 49°25' W 123°52'3 7.5
2018-Apr-21 15:57N 49°24' W 123°47'4 9.0
2018-Apr-21 15:30N 49°23' W 123°41'4 8.6
2018-Apr-21 15:00N 49°21' W 123°35'4 8.5
2018-Apr-21 14:30N 49°20' W 123°29'4 8.5
2018-Apr-21 13:59N 49°19' W 123°22'4 8.8
2018-Apr-21 13:30N 49°19' W 123°15'4 8.9
2018-Apr-21 13:00N 49°19' W 123°09'4 7.9
2018-Apr-21 12:30N 49°18' W 123°03'2 3.5
2018-Apr-21 12:00N 49°18' W 123°00'0 0.0
2018-Apr-21 11:29N 49°18' W 123°00'0 0.0
2018-Apr-21 10:59N 49°18' W 123°00'0 0.0
2018-Apr-21 10:29N 49°18' W 123°00'0 0.0
2018-Apr-21 09:59N 49°18' W 123°00'0 0.1
2018-Apr-21 09:29N 49°18' W 123°00'0 0.1
2018-Apr-21 08:59N 49°18' W 123°00'0 0.0
2018-Apr-21 08:29N 49°18' W 123°00'0 0.0
2018-Apr-21 07:59N 49°18' W 123°00'0 0.0
2018-Apr-21 07:29N 49°18' W 123°00'0 0.0
2018-Apr-21 06:59N 49°18' W 123°00'0 0.0
2018-Apr-21 06:29N 49°18' W 123°00'0 0.0
2018-Apr-21 05:53N 49°18' W 123°00'0 0.0
2018-Apr-21 05:29N 49°18' W 123°00'0 0.0
2018-Apr-21 04:59N 49°18' W 123°00'0 0.0
2018-Apr-21 04:29N 49°18' W 123°00'0 0.0
2018-Apr-21 03:53N 49°18' W 123°00'0 0.0
2018-Apr-21 03:23N 49°18' W 123°00'0 0.0
2018-Apr-21 02:59N 49°18' W 123°00'0 0.0
2018-Apr-21 02:29N 49°18' W 123°00'0 0.0
2018-Apr-21 01:59N 49°18' W 123°00'0 0.0
2018-Apr-21 01:29N 49°18' W 123°00'0 0.0
2018-Apr-21 00:59N 49°18' W 123°00'0 0.1
2018-Apr-21 00:29N 49°18' W 123°00'0 0.1
2018-Apr-20 23:59N 49°18' W 123°00'0 0.0
2018-Apr-20 23:29N 49°18' W 123°00'0 0.0
2018-Apr-20 22:59N 49°18' W 123°00'0 0.0
2018-Apr-20 22:29N 49°18' W 123°00'0 0.0
2018-Apr-20 21:59N 49°18' W 123°00'0 0.0
2018-Apr-20 21:29N 49°18' W 123°00'0 0.1
2018-Apr-20 20:59N 49°18' W 123°00'0 0.1
2018-Apr-20 20:29N 49°18' W 123°00'0 0.0
2018-Apr-20 19:59N 49°18' W 123°00'0 0.0
2018-Apr-20 19:29N 49°18' W 123°00'0 0.0
2018-Apr-20 18:59N 49°18' W 123°00'0 0.0
2018-Apr-20 18:29N 49°18' W 123°00'0 0.0
2018-Apr-20 17:59N 49°18' W 123°00'0 0.1
2018-Apr-20 17:29N 49°18' W 123°00'0 0.1
2018-Apr-20 16:59N 49°18' W 123°00'0 0.0
2018-Apr-20 16:29N 49°18' W 123°00'0 0.0
2018-Apr-20 15:53N 49°18' W 123°00'0 0.0
2018-Apr-20 15:29N 49°18' W 123°00'0 0.0
2018-Apr-20 14:53N 49°18' W 123°00'0 0.0
2018-Apr-20 14:29N 49°18' W 123°00'0 0.0
2018-Apr-20 13:59N 49°18' W 123°00'0 0.0
2018-Apr-20 13:29N 49°18' W 123°00'0 0.1
2018-Apr-20 12:59N 49°18' W 123°00'0 0.1
2018-Apr-20 12:29N 49°18' W 123°00'0 0.0
2018-Apr-20 11:59N 49°18' W 123°00'0 0.0
2018-Apr-20 11:29N 49°18' W 123°00'0 0.0
2018-Apr-20 10:59N 49°18' W 123°00'0 0.0
2018-Apr-20 10:29N 49°18' W 123°00'0 0.0
2018-Apr-20 09:59N 49°18' W 123°00'0 0.0
2018-Apr-20 09:29N 49°18' W 123°00'0 0.0
2018-Apr-20 08:59N 49°18' W 123°00'0 0.1
2018-Apr-20 08:29N 49°18' W 123°00'0 0.1
2018-Apr-20 07:59N 49°18' W 123°00'0 0.1
2018-Apr-20 07:29N 49°18' W 123°00'0 0.1
2018-Apr-20 06:59N 49°18' W 123°00'0 0.0
2018-Apr-20 06:29N 49°18' W 123°00'0 0.0
2018-Apr-20 05:53N 49°18' W 123°00'1 2.7
2018-Apr-20 05:30N 49°18' W 122°59'0 0.9
2018-Apr-20 05:00N 49°18' W 122°58'1 1.8
2018-Apr-20 04:29N 49°18' W 122°57'0 0.1
2018-Apr-20 03:59N 49°18' W 122°57'0 0.2
2018-Apr-20 03:29N 49°18' W 122°57'0 0.1
2018-Apr-20 02:59N 49°18' W 122°57'0 0.1
2018-Apr-20 02:29N 49°18' W 122°57'0 0.0
2018-Apr-20 01:59N 49°18' W 122°57'0 0.0
2018-Apr-20 01:29N 49°18' W 122°57'0 0.1
2018-Apr-20 00:56N 49°18' W 122°57'0 0.0
2018-Apr-20 00:29N 49°18' W 122°57'0 0.0
2018-Apr-19 23:53N 49°18' W 122°57'0 0.0
2018-Apr-19 23:29N 49°18' W 122°57'0 0.1
2018-Apr-19 22:56N 49°18' W 122°57'0 0.2
2018-Apr-19 22:29N 49°18' W 122°57'0 0.0
2018-Apr-19 21:53N 49°18' W 122°57'0 0.1
2018-Apr-19 21:29N 49°18' W 122°57'0 0.0
2018-Apr-19 20:56N 49°18' W 122°57'0 0.1
2018-Apr-19 20:29N 49°18' W 122°57'0 0.0
2018-Apr-19 19:59N 49°18' W 122°57'0 0.0
2018-Apr-19 19:29N 49°18' W 122°57'0 0.1
2018-Apr-19 18:59N 49°18' W 122°57'0 0.1
2018-Apr-19 18:29N 49°18' W 122°57'0 0.1
2018-Apr-19 17:59N 49°18' W 122°57'0 0.1
2018-Apr-19 17:29N 49°18' W 122°57'0 0.1
2018-Apr-19 16:59N 49°18' W 122°57'0 0.1
2018-Apr-19 16:29N 49°18' W 122°57'0 0.0
2018-Apr-19 15:59N 49°18' W 122°57'0 0.0
2018-Apr-19 15:29N 49°18' W 122°57'0 0.0
2018-Apr-19 14:59N 49°18' W 122°57'0 0.0
2018-Apr-19 14:29N 49°18' W 122°57'0 0.1
2018-Apr-19 13:59N 49°18' W 122°57'0 0.0
2018-Apr-19 13:29N 49°18' W 122°57'0 0.1
2018-Apr-19 12:59N 49°18' W 122°57'0 0.1
2018-Apr-19 12:29N 49°18' W 122°57'0 0.0
2018-Apr-19 11:56N 49°18' W 122°57'0 0.0
2018-Apr-19 11:29N 49°18' W 122°57'0 0.1
2018-Apr-19 10:59N 49°18' W 122°57'0 0.2
2018-Apr-19 10:29N 49°18' W 122°57'0 0.3
2018-Apr-19 10:01N 49°18' W 122°57'2 4.6
2018-Apr-19 09:30N 49°18' W 123°00'3 6.4
2018-Apr-19 09:00N 49°18' W 123°05'3 5.2
2018-Apr-19 08:30N 49°19' W 123°09'4 7.6
2018-Apr-19 08:00N 49°20' W 123°15'4 7.3
2018-Apr-19 07:30N 49°19' W 123°20'4 7.6
2018-Apr-19 07:00N 49°19' W 123°26'4 7.6
2018-Apr-19 06:30N 49°21' W 123°32'4 7.4
2018-Apr-19 06:00N 49°21' W 123°37'3 6.5
2018-Apr-19 05:30N 49°23' W 123°42'3 6.7
2018-Apr-19 04:59N 49°24' W 123°47'3 6.3
2018-Apr-19 04:30N 49°25' W 123°51'3 6.9
2018-Apr-19 04:00N 49°26' W 123°56'3 5.8
2018-Apr-19 03:26N 49°27' W 124°01'3 7.5
2018-Apr-19 03:00N 49°28' W 124°06'9 8.1
2018-Apr-19 01:55N 49°32' W 124°18'4 9.7
2018-Apr-19 01:29N 49°34' W 124°23'5 9.2
2018-Apr-19 00:58N 49°37' W 124°29'4 9.6
2018-Apr-19 00:30N 49°40' W 124°35'5 9.8
2018-Apr-19 00:00N 49°43' W 124°40'5 9.8
2018-Apr-18 23:30N 49°46' W 124°46'510.1
2018-Apr-18 23:00N 49°50' W 124°52'5 9.5
2018-Apr-18 22:30N 49°52' W 124°58'5 9.6
2018-Apr-18 22:00N 49°55' W 125°04'5 9.8
2018-Apr-18 21:30N 49°58' W 125°10'511.0
2018-Apr-18 21:00N 50°03' W 125°14'4 8.7
2018-Apr-18 20:30N 50°06' W 125°18'4 7.2
2018-Apr-18 20:00N 50°09' W 125°21'3 6.7
2018-Apr-18 19:29N 50°13' W 125°23'3 5.2
2018-Apr-18 18:57N 50°16' W 125°23'2 5.2
2018-Apr-18 18:29N 50°18' W 125°25'3 5.9
2018-Apr-18 18:00N 50°20' W 125°26'4 6.2
2018-Apr-18 17:22N 50°21' W 125°32'2 2.3
2018-Apr-18 16:23N 50°22' W 125°35'2 6.2
2018-Apr-18 16:00N 50°22' W 125°39'5 5.3
2018-Apr-18 15:00N 50°22' W 125°47'20 6.9
2018-Apr-18 12:09N 50°29' W 126°16'19 9.0
2018-Apr-18 10:01N 50°36' W 126°44'1 9.8
2018-Apr-18 09:54N 50°37' W 126°46'410.9
2018-Apr-18 09:30N 50°40' W 126°51'610.3
2018-Apr-18 08:56N 50°43' W 126°59'610.0
2018-Apr-18 08:20N 50°45' W 127°08'3 9.7
2018-Apr-18 08:00N 50°46' W 127°13'510.6
2018-Apr-18 07:30N 50°48' W 127°20'510.3
2018-Apr-18 07:00N 50°50' W 127°28'510.2
2018-Apr-18 06:30N 50°53' W 127°35'5 9.6
2018-Apr-18 06:00N 50°56' W 127°41'5 9.5
2018-Apr-18 05:30N 50°59' W 127°47'5 9.6
2018-Apr-18 04:59N 51°02' W 127°53'5 9.7
2018-Apr-18 04:30N 51°05' W 127°59'6 9.7
2018-Apr-18 03:54N 51°08' W 128°06'4 9.0
2018-Apr-18 03:30N 51°11' W 128°10'4 8.8
2018-Apr-18 03:00N 51°13' W 128°15'4 8.4
2018-Apr-18 02:30N 51°16' W 128°21'5 9.2
2018-Apr-18 02:00N 51°19' W 128°26'5 9.6
2018-Apr-18 01:30N 51°23' W 128°31'5 9.5
2018-Apr-18 01:00N 51°27' W 128°35'5 9.6
2018-Apr-18 00:30N 51°31' W 128°40'510.0
2018-Apr-18 00:00N 51°35' W 128°44'510.1
2018-Apr-17 23:30N 51°39' W 128°49'510.2
2018-Apr-17 23:00N 51°43' W 128°53'5 9.9
2018-Apr-17 22:31N 51°47' W 128°58'5 9.8
2018-Apr-17 22:00N 51°51' W 129°02'5 9.5
2018-Apr-17 21:30N 51°55' W 129°06'5 9.4
2018-Apr-17 21:00N 51°59' W 129°11'100 9.6
2018-Apr-17 10:37N 53°22' W 130°43'510.2
2018-Apr-17 10:09N 53°27' W 130°46'2 9.6
2018-Apr-17 09:58N 53°28' W 130°47'5 9.6
2018-Apr-17 09:27N 53°33' W 130°50'4 9.3
2018-Apr-17 09:00N 53°37' W 130°52'5 9.1
2018-Apr-17 08:30N 53°41' W 130°54'5 9.5
2018-Apr-17 08:00N 53°46' W 130°55'5 9.4
2018-Apr-17 07:30N 53°50' W 130°57'5 9.6
2018-Apr-17 07:00N 53°55' W 130°59'5 9.7
2018-Apr-17 06:30N 53°60' W 131°00'5 9.8
2018-Apr-17 06:00N 54°05' W 131°01'510.2
2018-Apr-17 05:30N 54°10' W 131°02'510.1
2018-Apr-17 05:00N 54°15' W 131°03'5 9.7
2018-Apr-17 04:30N 54°20' W 131°04'5 9.3
2018-Apr-17 04:00N 54°24' W 131°05'5 9.3
2018-Apr-17 03:30N 54°29' W 131°07'5 9.3
2018-Apr-17 03:00N 54°33' W 131°08'5 9.1
2018-Apr-17 02:30N 54°38' W 131°09'5 9.4
2018-Apr-17 01:59N 54°43' W 131°09'4 8.9
2018-Apr-17 01:30N 54°47' W 131°08'5 9.6
2018-Apr-17 01:00N 54°52' W 131°08'27 0.7
2018-Apr-15 09:48N 54°25' W 131°05'4 9.2
2018-Apr-15 09:25N 54°22' W 131°04'4 8.8
2018-Apr-15 09:00N 54°18' W 131°03'4 8.4
2018-Apr-15 08:30N 54°14' W 131°02'5 9.1
2018-Apr-15 08:00N 54°09' W 131°02'5 9.5
2018-Apr-15 07:30N 54°05' W 131°02'5 9.6
2018-Apr-15 07:00N 53°60' W 130°60'5 9.9
2018-Apr-15 06:30N 53°55' W 130°57'5 9.7
2018-Apr-15 06:00N 53°52' W 130°52'125 8.9
2018-Apr-14 16:00N 52°12' W 128°45'4 8.7
2018-Apr-14 15:30N 52°08' W 128°43'5 9.2
2018-Apr-14 15:00N 52°04' W 128°41'4 8.7
2018-Apr-14 14:31N 51°60' W 128°39'4 8.8
2018-Apr-14 14:00N 51°55' W 128°37'4 8.7
2018-Apr-14 13:30N 51°51' W 128°35'4 8.5
2018-Apr-14 13:00N 51°48' W 128°32'4 8.2
2018-Apr-14 12:30N 51°44' W 128°28'4 8.1
2018-Apr-14 12:00N 51°41' W 128°25'4 8.2
2018-Apr-14 11:30N 51°37' W 128°21'4 8.2
2018-Apr-14 11:00N 51°34' W 128°17'4 8.1
2018-Apr-14 10:30N 51°31' W 128°13'4 8.1
2018-Apr-14 10:00N 51°28' W 128°10'4 7.7
2018-Apr-14 09:30N 51°25' W 128°04'4 7.6
2018-Apr-14 09:00N 51°23' W 127°59'4 8.2
2018-Apr-14 08:30N 51°20' W 127°56'4 8.4
2018-Apr-14 08:00N 51°16' W 127°54'4 8.4
2018-Apr-14 07:30N 51°12' W 127°52'4 8.5
2018-Apr-14 07:00N 51°08' W 127°50'4 8.0
2018-Apr-14 06:30N 51°04' W 127°48'4 8.1
2018-Apr-14 06:00N 51°00' W 127°46'4 7.8
2018-Apr-14 05:30N 50°57' W 127°43'4 8.3
2018-Apr-14 05:00N 50°54' W 127°38'4 8.5
2018-Apr-14 04:30N 50°52' W 127°33'4 8.8
2018-Apr-14 04:00N 50°50' W 127°27'4 8.7
2018-Apr-14 03:30N 50°48' W 127°20'5 9.0
2018-Apr-14 03:00N 50°46' W 127°14'5 9.2
2018-Apr-14 02:30N 50°44' W 127°07'5 9.3
2018-Apr-14 02:00N 50°43' W 127°00'5 9.2
2018-Apr-14 01:28N 50°41' W 126°53'5 9.7
2018-Apr-14 00:59N 50°38' W 126°47'610.4
2018-Apr-14 00:26N 50°33' W 126°41'4 9.3
2018-Apr-14 00:00N 50°31' W 126°36'35 8.6
2018-Apr-13 19:59N 50°22' W 125°44'11 8.3
2018-Apr-13 18:40N 50°20' W 125°27'1 7.7
2018-Apr-13 18:30N 50°20' W 125°25'5 9.3
2018-Apr-13 18:00N 50°15' W 125°23'5 9.9
2018-Apr-13 17:30N 50°10' W 125°22'5 9.2
2018-Apr-13 17:00N 50°06' W 125°18'4 7.7
2018-Apr-13 16:30N 50°03' W 125°14'4 8.7
2018-Apr-13 16:00N 49°59' W 125°12'3 6.2
2018-Apr-13 15:28N 49°57' W 125°08'3 7.1
2018-Apr-13 14:59N 49°55' W 125°04'3 6.6
2018-Apr-13 14:29N 49°53' W 124°60'3 6.3
2018-Apr-13 14:00N 49°51' W 124°56'3 6.7
2018-Apr-13 13:30N 49°49' W 124°52'3 6.9
2018-Apr-13 13:00N 49°47' W 124°48'3 6.7
2018-Apr-13 12:29N 49°45' W 124°44'3 6.4
2018-Apr-13 11:59N 49°43' W 124°40'3 6.7
2018-Apr-13 11:30N 49°41' W 124°36'9 6.5
2018-Apr-13 10:03N 49°35' W 124°25'0 6.8
2018-Apr-13 10:00N 49°35' W 124°24'4 6.9
2018-Apr-13 09:27N 49°33' W 124°19'10 7.2
2018-Apr-13 08:00N 49°27' W 124°06'3 6.4
2018-Apr-13 07:29N 49°25' W 124°01'3 6.4
2018-Apr-13 07:00N 49°24' W 123°57'3 5.6
2018-Apr-13 06:27N 49°22' W 123°54'3 5.2
2018-Apr-13 05:52N 49°20' W 123°50'2 5.0
2018-Apr-13 05:29N 49°19' W 123°48'2 4.9
2018-Apr-13 04:59N 49°17' W 123°45'3 5.3
2018-Apr-13 04:23N 49°15' W 123°41'5 5.7
2018-Apr-13 03:29N 49°12' W 123°35'4 6.7
2018-Apr-13 02:50N 49°09' W 123°30'2 6.6
2018-Apr-13 02:28N 49°08' W 123°27'3 7.1
2018-Apr-13 01:59N 49°06' W 123°23'3 6.9
2018-Apr-13 01:29N 49°03' W 123°19'3 7.0
2018-Apr-13 01:00N 49°01' W 123°15'3 7.2
2018-Apr-13 00:30N 48°59' W 123°11'4 7.0
2018-Apr-12 23:58N 48°56' W 123°07'3 6.9
2018-Apr-12 23:28N 48°54' W 123°03'3 6.7
2018-Apr-12 22:59N 48°52' W 122°59'3 6.6
2018-Apr-12 22:30N 48°50' W 122°55'4 7.0
2018-Apr-12 21:59N 48°47' W 122°51'18 6.7
2018-Apr-12 19:18N 48°33' W 122°35'2 7.1
2018-Apr-12 18:59N 48°31' W 122°34'0 0.0
2018-Apr-12 15:40N 48°31' W 122°34'0 0.2
2018-Apr-12 15:30N 48°31' W 122°34'  

Dump ship's entire track history